sensor_id;sensor_type;location;lat;lon;timestamp;temperature;humidity
25668;DHT22;18003;-33.830;151.202;2023-03-20T00:02:25;26.40;99.90
25668;DHT22;18003;-33.830;151.202;2023-03-20T00:04:55;26.50;99.90
25668;DHT22;18003;-33.830;151.202;2023-03-20T00:07:25;26.70;99.90
25668;DHT22;18003;-33.830;151.202;2023-03-20T00:09:56;26.70;99.90
25668;DHT22;18003;-33.830;151.202;2023-03-20T00:12:26;26.60;99.90
25668;DHT22;18003;-33.830;151.202;2023-03-20T00:14:56;26.30;99.90
25668;DHT22;18003;-33.830;151.202;2023-03-20T00:17:26;26.50;99.90
25668;DHT22;18003;-33.830;151.202;2023-03-20T00:19:56;26.60;99.90
25668;DHT22;18003;-33.830;151.202;2023-03-20T00:22:26;26.70;99.90
25668;DHT22;18003;-33.830;151.202;2023-03-20T00:24:56;26.50;99.90
25668;DHT22;18003;-33.830;151.202;2023-03-20T00:27:26;26.40;99.90
25668;DHT22;18003;-33.830;151.202;2023-03-20T00:29:56;26.60;99.90
25668;DHT22;18003;-33.830;151.202;2023-03-20T00:32:26;26.70;99.90
25668;DHT22;18003;-33.830;151.202;2023-03-20T00:34:56;26.60;99.90
25668;DHT22;18003;-33.830;151.202;2023-03-20T00:37:26;26.50;99.90
25668;DHT22;18003;-33.830;151.202;2023-03-20T00:39:57;26.40;99.90
25668;DHT22;18003;-33.830;151.202;2023-03-20T00:42:27;26.50;99.90
25668;DHT22;18003;-33.830;151.202;2023-03-20T00:44:57;26.60;99.90
25668;DHT22;18003;-33.830;151.202;2023-03-20T00:47:28;26.60;99.90
25668;DHT22;18003;-33.830;151.202;2023-03-20T00:49:58;26.30;99.90
25668;DHT22;18003;-33.830;151.202;2023-03-20T00:52:28;26.30;99.90
25668;DHT22;18003;-33.830;151.202;2023-03-20T00:54:58;26.40;99.90
25668;DHT22;18003;-33.830;151.202;2023-03-20T00:57:29;26.60;99.90
25668;DHT22;18003;-33.830;151.202;2023-03-20T01:00:05;26.70;99.90
25668;DHT22;18003;-33.830;151.202;2023-03-20T01:02:35;26.40;99.90
25668;DHT22;18003;-33.830;151.202;2023-03-20T01:05:06;26.40;99.90
25668;DHT22;18003;-33.830;151.202;2023-03-20T01:07:36;26.50;99.90
25668;DHT22;18003;-33.830;151.202;2023-03-20T01:10:07;26.60;99.90
25668;DHT22;18003;-33.830;151.202;2023-03-20T01:12:38;26.70;99.90
25668;DHT22;18003;-33.830;151.202;2023-03-20T01:15:26;26.30;99.90
25668;DHT22;18003;-33.830;151.202;2023-03-20T01:17:41;26.40;99.90
25668;DHT22;18003;-33.830;151.202;2023-03-20T01:20:16;26.50;99.90
25668;DHT22;18003;-33.830;151.202;2023-03-20T01:22:46;26.60;99.90
25668;DHT22;18003;-33.830;151.202;2023-03-20T01:25:17;26.50;99.90
25668;DHT22;18003;-33.830;151.202;2023-03-20T01:27:51;26.20;99.90
25668;DHT22;18003;-33.830;151.202;2023-03-20T01:30:23;26.40;99.90
25668;DHT22;18003;-33.830;151.202;2023-03-20T01:32:54;26.50;99.90
25668;DHT22;18003;-33.830;151.202;2023-03-20T01:35:25;26.60;99.90
25668;DHT22;18003;-33.830;151.202;2023-03-20T01:37:54;26.40;99.90
25668;DHT22;18003;-33.830;151.202;2023-03-20T01:40:32;26.20;99.90
25668;DHT22;18003;-33.830;151.202;2023-03-20T01:43:04;26.30;99.90
25668;DHT22;18003;-33.830;151.202;2023-03-20T01:45:35;26.50;99.90
25668;DHT22;18003;-33.830;151.202;2023-03-20T01:48:18;26.50;99.90
25668;DHT22;18003;-33.830;151.202;2023-03-20T01:50:49;26.30;99.90
25668;DHT22;18003;-33.830;151.202;2023-03-20T01:53:26;26.10;99.90
25668;DHT22;18003;-33.830;151.202;2023-03-20T01:55:58;26.30;99.90
25668;DHT22;18003;-33.830;151.202;2023-03-20T01:58:35;26.40;99.90
25668;DHT22;18003;-33.830;151.202;2023-03-20T02:01:00;26.40;99.90
25668;DHT22;18003;-33.830;151.202;2023-03-20T02:03:31;26.20;99.90
25668;DHT22;18003;-33.830;151.202;2023-03-20T02:06:01;26.20;99.90
25668;DHT22;18003;-33.830;151.202;2023-03-20T02:08:32;26.40;99.90
25668;DHT22;18003;-33.830;151.202;2023-03-20T02:11:01;26.40;99.90
25668;DHT22;18003;-33.830;151.202;2023-03-20T02:13:32;26.40;99.90
25668;DHT22;18003;-33.830;151.202;2023-03-20T02:16:05;26.10;99.90
25668;DHT22;18003;-33.830;151.202;2023-03-20T02:18:36;26.20;99.90
25668;DHT22;18003;-33.830;151.202;2023-03-20T02:30:25;26.10;99.90
25668;DHT22;18003;-33.830;151.202;2023-03-20T02:33:16;26.30;99.90
25668;DHT22;18003;-33.830;151.202;2023-03-20T02:35:59;26.40;99.90
25668;DHT22;18003;-33.830;151.202;2023-03-20T02:41:27;26.20;99.90
25668;DHT22;18003;-33.830;151.202;2023-03-20T02:46:46;26.40;99.90
25668;DHT22;18003;-33.830;151.202;2023-03-20T02:52:41;26.20;99.90
25668;DHT22;18003;-33.830;151.202;2023-03-20T02:54:43;26.20;99.90
25668;DHT22;18003;-33.830;151.202;2023-03-20T02:57:46;26.30;99.90
25668;DHT22;18003;-33.830;151.202;2023-03-20T03:02:55;26.40;99.90
25668;DHT22;18003;-33.830;151.202;2023-03-20T03:05:21;26.00;99.90
25668;DHT22;18003;-33.830;151.202;2023-03-20T03:07:52;26.20;99.90
25668;DHT22;18003;-33.830;151.202;2023-03-20T03:10:33;26.40;99.90
25668;DHT22;18003;-33.830;151.202;2023-03-20T03:12:59;26.40;99.90
25668;DHT22;18003;-33.830;151.202;2023-03-20T03:15:34;26.20;99.90
25668;DHT22;18003;-33.830;151.202;2023-03-20T03:18:06;26.00;99.90
25668;DHT22;18003;-33.830;151.202;2023-03-20T03:20:38;26.20;99.90
25668;DHT22;18003;-33.830;151.202;2023-03-20T03:23:09;26.30;99.90
25668;DHT22;18003;-33.830;151.202;2023-03-20T03:25:40;26.40;99.90
25668;DHT22;18003;-33.830;151.202;2023-03-20T03:28:22;26.20;99.90
25668;DHT22;18003;-33.830;151.202;2023-03-20T03:30:52;26.10;99.90
25668;DHT22;18003;-33.830;151.202;2023-03-20T03:33:27;26.20;99.90
25668;DHT22;18003;-33.830;151.202;2023-03-20T03:36:16;26.30;99.90
25668;DHT22;18003;-33.830;151.202;2023-03-20T03:38:49;26.40;99.90
25668;DHT22;18003;-33.830;151.202;2023-03-20T03:41:21;26.20;99.90
25668;DHT22;18003;-33.830;151.202;2023-03-20T03:44:11;26.10;99.90
25668;DHT22;18003;-33.830;151.202;2023-03-20T03:49:31;26.40;99.90
25668;DHT22;18003;-33.830;151.202;2023-03-20T03:52:04;26.30;99.90
25668;DHT22;18003;-33.830;151.202;2023-03-20T03:54:38;26.00;99.90
25668;DHT22;18003;-33.830;151.202;2023-03-20T03:57:06;26.10;99.90
25668;DHT22;18003;-33.830;151.202;2023-03-20T03:59:38;26.30;99.90
25668;DHT22;18003;-33.830;151.202;2023-03-20T04:02:08;26.30;99.90
25668;DHT22;18003;-33.830;151.202;2023-03-20T04:04:41;26.10;99.90
25668;DHT22;18003;-33.830;151.202;2023-03-20T04:07:12;26.00;99.90
25668;DHT22;18003;-33.830;151.202;2023-03-20T04:09:42;26.10;99.90
25668;DHT22;18003;-33.830;151.202;2023-03-20T04:14:59;26.20;99.90
25668;DHT22;18003;-33.830;151.202;2023-03-20T04:17:29;25.90;99.90
25668;DHT22;18003;-33.830;151.202;2023-03-20T04:19:59;26.00;99.90
25668;DHT22;18003;-33.830;151.202;2023-03-20T04:22:29;26.10;99.90
25668;DHT22;18003;-33.830;151.202;2023-03-20T04:25:01;26.20;99.90
25668;DHT22;18003;-33.830;151.202;2023-03-20T04:27:31;26.30;99.90
25668;DHT22;18003;-33.830;151.202;2023-03-20T04:30:01;25.90;99.90
25668;DHT22;18003;-33.830;151.202;2023-03-20T04:32:31;25.90;99.90
25668;DHT22;18003;-33.830;151.202;2023-03-20T04:37:35;26.20;99.90
25668;DHT22;18003;-33.830;151.202;2023-03-20T04:40:06;26.30;99.90
25668;DHT22;18003;-33.830;151.202;2023-03-20T04:42:36;26.00;99.90
25668;DHT22;18003;-33.830;151.202;2023-03-20T04:45:07;26.10;99.90
25668;DHT22;18003;-33.830;151.202;2023-03-20T04:47:38;26.30;99.90
25668;DHT22;18003;-33.830;151.202;2023-03-20T04:50:09;26.40;99.90
25668;DHT22;18003;-33.830;151.202;2023-03-20T04:52:40;26.30;99.90
25668;DHT22;18003;-33.830;151.202;2023-03-20T04:55:10;25.90;99.90
25668;DHT22;18003;-33.830;151.202;2023-03-20T04:57:40;26.10;99.90
25668;DHT22;18003;-33.830;151.202;2023-03-20T05:00:11;26.20;99.90
25668;DHT22;18003;-33.830;151.202;2023-03-20T05:02:40;26.30;99.90
25668;DHT22;18003;-33.830;151.202;2023-03-20T05:05:11;26.20;99.90
25668;DHT22;18003;-33.830;151.202;2023-03-20T05:07:41;26.00;99.90
25668;DHT22;18003;-33.830;151.202;2023-03-20T05:10:11;26.10;99.90
25668;DHT22;18003;-33.830;151.202;2023-03-20T05:12:41;26.20;99.90
25668;DHT22;18003;-33.830;151.202;2023-03-20T05:15:11;26.30;99.90
25668;DHT22;18003;-33.830;151.202;2023-03-20T05:17:41;26.10;99.90
25668;DHT22;18003;-33.830;151.202;2023-03-20T05:20:12;25.90;99.90
25668;DHT22;18003;-33.830;151.202;2023-03-20T05:22:42;26.00;99.90
25668;DHT22;18003;-33.830;151.202;2023-03-20T05:25:12;26.20;99.90
25668;DHT22;18003;-33.830;151.202;2023-03-20T05:27:42;26.30;99.90
25668;DHT22;18003;-33.830;151.202;2023-03-20T05:30:13;26.00;99.90
25668;DHT22;18003;-33.830;151.202;2023-03-20T05:32:43;25.90;99.90
25668;DHT22;18003;-33.830;151.202;2023-03-20T05:35:14;26.10;99.90
25668;DHT22;18003;-33.830;151.202;2023-03-20T05:37:44;26.10;99.90
25668;DHT22;18003;-33.830;151.202;2023-03-20T05:40:15;26.10;99.90
25668;DHT22;18003;-33.830;151.202;2023-03-20T05:42:46;26.00;99.90
25668;DHT22;18003;-33.830;151.202;2023-03-20T05:45:17;25.90;99.90
25668;DHT22;18003;-33.830;151.202;2023-03-20T05:47:48;26.10;99.90
25668;DHT22;18003;-33.830;151.202;2023-03-20T05:50:19;26.20;99.90
25668;DHT22;18003;-33.830;151.202;2023-03-20T05:52:49;26.20;99.90
25668;DHT22;18003;-33.830;151.202;2023-03-20T05:55:19;25.90;99.90
25668;DHT22;18003;-33.830;151.202;2023-03-20T05:57:49;26.00;99.90
25668;DHT22;18003;-33.830;151.202;2023-03-20T06:00:20;26.10;99.90
25668;DHT22;18003;-33.830;151.202;2023-03-20T06:02:49;26.20;99.90
25668;DHT22;18003;-33.830;151.202;2023-03-20T06:05:19;26.20;99.90
25668;DHT22;18003;-33.830;151.202;2023-03-20T06:07:49;26.00;99.90
25668;DHT22;18003;-33.830;151.202;2023-03-20T06:10:19;26.00;99.90
25668;DHT22;18003;-33.830;151.202;2023-03-20T06:12:49;26.10;99.90
25668;DHT22;18003;-33.830;151.202;2023-03-20T06:15:20;26.10;99.90
25668;DHT22;18003;-33.830;151.202;2023-03-20T06:17:51;26.10;99.90
25668;DHT22;18003;-33.830;151.202;2023-03-20T06:20:21;26.00;99.90
25668;DHT22;18003;-33.830;151.202;2023-03-20T06:22:51;26.10;99.90
25668;DHT22;18003;-33.830;151.202;2023-03-20T06:25:24;26.20;99.90
25668;DHT22;18003;-33.830;151.202;2023-03-20T06:27:54;26.20;99.90
25668;DHT22;18003;-33.830;151.202;2023-03-20T06:30:24;26.20;99.90
25668;DHT22;18003;-33.830;151.202;2023-03-20T06:32:54;26.00;99.90
25668;DHT22;18003;-33.830;151.202;2023-03-20T06:35:24;26.20;99.90
25668;DHT22;18003;-33.830;151.202;2023-03-20T06:37:55;26.30;99.90
25668;DHT22;18003;-33.830;151.202;2023-03-20T06:40:29;26.30;99.90
25668;DHT22;18003;-33.830;151.202;2023-03-20T06:42:59;26.20;99.90
25668;DHT22;18003;-33.830;151.202;2023-03-20T06:45:29;26.00;99.90
25668;DHT22;18003;-33.830;151.202;2023-03-20T06:47:59;26.20;99.90
25668;DHT22;18003;-33.830;151.202;2023-03-20T06:50:29;26.30;99.90
25668;DHT22;18003;-33.830;151.202;2023-03-20T06:53:00;26.40;99.90
25668;DHT22;18003;-33.830;151.202;2023-03-20T06:55:30;26.20;99.90
25668;DHT22;18003;-33.830;151.202;2023-03-20T06:58:00;26.10;99.90
25668;DHT22;18003;-33.830;151.202;2023-03-20T07:00:30;26.20;99.90
25668;DHT22;18003;-33.830;151.202;2023-03-20T07:03:01;26.30;99.90
25668;DHT22;18003;-33.830;151.202;2023-03-20T07:05:31;26.30;99.90
25668;DHT22;18003;-33.830;151.202;2023-03-20T07:08:01;26.20;99.90
25668;DHT22;18003;-33.830;151.202;2023-03-20T07:10:31;26.10;99.90
25668;DHT22;18003;-33.830;151.202;2023-03-20T07:13:01;26.20;99.90
25668;DHT22;18003;-33.830;151.202;2023-03-20T07:15:31;26.30;99.90
25668;DHT22;18003;-33.830;151.202;2023-03-20T07:18:01;26.40;99.90
25668;DHT22;18003;-33.830;151.202;2023-03-20T07:20:31;26.10;99.90
25668;DHT22;18003;-33.830;151.202;2023-03-20T07:23:01;26.10;99.90
25668;DHT22;18003;-33.830;151.202;2023-03-20T07:25:31;26.20;99.90
25668;DHT22;18003;-33.830;151.202;2023-03-20T07:28:01;26.30;99.90
25668;DHT22;18003;-33.830;151.202;2023-03-20T07:30:32;26.30;99.90
25668;DHT22;18003;-33.830;151.202;2023-03-20T07:33:03;26.00;99.90
25668;DHT22;18003;-33.830;151.202;2023-03-20T07:35:33;26.10;99.90
25668;DHT22;18003;-33.830;151.202;2023-03-20T07:38:03;26.20;99.90
25668;DHT22;18003;-33.830;151.202;2023-03-20T07:40:34;26.30;99.90
25668;DHT22;18003;-33.830;151.202;2023-03-20T07:43:04;26.30;99.90
25668;DHT22;18003;-33.830;151.202;2023-03-20T07:45:34;26.00;99.90
25668;DHT22;18003;-33.830;151.202;2023-03-20T07:48:04;26.10;99.90
25668;DHT22;18003;-33.830;151.202;2023-03-20T07:50:35;26.30;99.90
25668;DHT22;18003;-33.830;151.202;2023-03-20T07:53:05;26.40;99.90
25668;DHT22;18003;-33.830;151.202;2023-03-20T07:55:35;26.40;99.90
25668;DHT22;18003;-33.830;151.202;2023-03-20T07:58:06;26.00;99.90
25668;DHT22;18003;-33.830;151.202;2023-03-20T08:00:36;26.20;99.90
25668;DHT22;18003;-33.830;151.202;2023-03-20T08:03:06;26.30;99.90
25668;DHT22;18003;-33.830;151.202;2023-03-20T08:05:36;26.40;99.90
25668;DHT22;18003;-33.830;151.202;2023-03-20T08:08:06;26.30;99.90
25668;DHT22;18003;-33.830;151.202;2023-03-20T08:10:36;26.00;99.90
25668;DHT22;18003;-33.830;151.202;2023-03-20T08:13:06;26.20;99.90
25668;DHT22;18003;-33.830;151.202;2023-03-20T08:15:36;26.30;99.90
25668;DHT22;18003;-33.830;151.202;2023-03-20T08:18:06;26.40;99.90
25668;DHT22;18003;-33.830;151.202;2023-03-20T08:20:36;26.30;99.90
25668;DHT22;18003;-33.830;151.202;2023-03-20T08:23:06;26.00;99.90
25668;DHT22;18003;-33.830;151.202;2023-03-20T08:25:36;26.20;99.90
25668;DHT22;18003;-33.830;151.202;2023-03-20T08:28:06;26.30;99.90
25668;DHT22;18003;-33.830;151.202;2023-03-20T08:30:36;26.30;99.90
25668;DHT22;18003;-33.830;151.202;2023-03-20T08:33:06;26.20;99.90
25668;DHT22;18003;-33.830;151.202;2023-03-20T08:35:40;26.00;99.90
25668;DHT22;18003;-33.830;151.202;2023-03-20T08:38:16;26.20;99.90
25668;DHT22;18003;-33.830;151.202;2023-03-20T08:40:47;26.30;99.90
25668;DHT22;18003;-33.830;151.202;2023-03-20T08:43:17;26.20;99.90
25668;DHT22;18003;-33.830;151.202;2023-03-20T08:45:47;26.10;99.90
25668;DHT22;18003;-33.830;151.202;2023-03-20T08:48:17;26.00;99.90
25668;DHT22;18003;-33.830;151.202;2023-03-20T08:50:47;26.20;99.90
25668;DHT22;18003;-33.830;151.202;2023-03-20T08:53:17;26.30;99.90
25668;DHT22;18003;-33.830;151.202;2023-03-20T08:55:51;26.30;99.90
25668;DHT22;18003;-33.830;151.202;2023-03-20T08:58:22;26.10;99.90
25668;DHT22;18003;-33.830;151.202;2023-03-20T09:00:52;26.10;99.90
25668;DHT22;18003;-33.830;151.202;2023-03-20T09:03:22;26.20;99.90
25668;DHT22;18003;-33.830;151.202;2023-03-20T09:05:52;26.20;99.90
25668;DHT22;18003;-33.830;151.202;2023-03-20T09:08:22;26.30;99.90
25668;DHT22;18003;-33.830;151.202;2023-03-20T09:10:52;26.00;99.90
25668;DHT22;18003;-33.830;151.202;2023-03-20T09:13:22;26.00;99.90
25668;DHT22;18003;-33.830;151.202;2023-03-20T09:15:52;26.20;99.90
25668;DHT22;18003;-33.830;151.202;2023-03-20T09:18:23;26.30;99.90
25668;DHT22;18003;-33.830;151.202;2023-03-20T09:20:53;26.20;99.90
25668;DHT22;18003;-33.830;151.202;2023-03-20T09:23:23;25.90;99.90
25668;DHT22;18003;-33.830;151.202;2023-03-20T09:25:53;26.00;99.90
25668;DHT22;18003;-33.830;151.202;2023-03-20T09:28:23;26.10;99.90
25668;DHT22;18003;-33.830;151.202;2023-03-20T09:30:58;26.20;99.90
25668;DHT22;18003;-33.830;151.202;2023-03-20T09:33:28;26.20;99.90
25668;DHT22;18003;-33.830;151.202;2023-03-20T09:35:58;25.90;99.90
25668;DHT22;18003;-33.830;151.202;2023-03-20T09:38:31;26.00;99.90
25668;DHT22;18003;-33.830;151.202;2023-03-20T09:41:02;26.10;99.90
25668;DHT22;18003;-33.830;151.202;2023-03-20T09:43:39;26.20;99.90
25668;DHT22;18003;-33.830;151.202;2023-03-20T09:46:33;26.00;99.90
25668;DHT22;18003;-33.830;151.202;2023-03-20T09:51:58;26.00;99.90
25668;DHT22;18003;-33.830;151.202;2023-03-20T09:54:43;26.10;99.90
25668;DHT22;18003;-33.830;151.202;2023-03-20T09:57:26;26.10;99.90
25668;DHT22;18003;-33.830;151.202;2023-03-20T09:59:56;25.90;99.90
25668;DHT22;18003;-33.830;151.202;2023-03-20T10:02:35;25.90;99.90
25668;DHT22;18003;-33.830;151.202;2023-03-20T10:05:05;26.00;99.90
25668;DHT22;18003;-33.830;151.202;2023-03-20T10:07:35;26.10;99.90
25668;DHT22;18003;-33.830;151.202;2023-03-20T10:10:06;26.00;99.90
25668;DHT22;18003;-33.830;151.202;2023-03-20T10:12:44;25.80;99.90
25668;DHT22;18003;-33.830;151.202;2023-03-20T10:15:27;26.00;99.90
25668;DHT22;18003;-33.830;151.202;2023-03-20T10:18:03;26.00;99.90
25668;DHT22;18003;-33.830;151.202;2023-03-20T10:20:43;26.10;99.90
25668;DHT22;18003;-33.830;151.202;2023-03-20T10:23:25;26.00;99.90
25668;DHT22;18003;-33.830;151.202;2023-03-20T10:26:14;25.90;99.90
25668;DHT22;18003;-33.830;151.202;2023-03-20T10:29:01;26.00;99.90
25668;DHT22;18003;-33.830;151.202;2023-03-20T10:32:40;26.10;99.90
25668;DHT22;18003;-33.830;151.202;2023-03-20T10:37:21;25.80;99.90
25668;DHT22;18003;-33.830;151.202;2023-03-20T10:42:44;26.00;99.90
25668;DHT22;18003;-33.830;151.202;2023-03-20T10:45:25;26.10;99.90
25668;DHT22;18003;-33.830;151.202;2023-03-20T10:47:52;25.90;99.90
25668;DHT22;18003;-33.830;151.202;2023-03-20T10:50:30;25.70;99.90
25668;DHT22;18003;-33.830;151.202;2023-03-20T10:52:55;25.50;99.90
25668;DHT22;18003;-33.830;151.202;2023-03-20T10:55:31;25.40;99.90
25668;DHT22;18003;-33.830;151.202;2023-03-20T10:58:07;25.60;99.90
25668;DHT22;18003;-33.830;151.202;2023-03-20T11:00:33;25.60;99.90
25668;DHT22;18003;-33.830;151.202;2023-03-20T11:03:04;25.50;99.90
25668;DHT22;18003;-33.830;151.202;2023-03-20T11:05:37;25.30;99.90
25668;DHT22;18003;-33.830;151.202;2023-03-20T11:08:12;25.20;99.90
25668;DHT22;18003;-33.830;151.202;2023-03-20T11:10:43;25.30;99.90
25668;DHT22;18003;-33.830;151.202;2023-03-20T11:13:29;25.40;99.90
25668;DHT22;18003;-33.830;151.202;2023-03-20T11:15:57;25.10;99.90
25668;DHT22;18003;-33.830;151.202;2023-03-20T11:18:29;25.00;99.90
25668;DHT22;18003;-33.830;151.202;2023-03-20T11:21:00;24.90;99.90
25668;DHT22;18003;-33.830;151.202;2023-03-20T11:23:32;25.00;99.90
25668;DHT22;18003;-33.830;151.202;2023-03-20T11:26:06;25.20;99.90
25668;DHT22;18003;-33.830;151.202;2023-03-20T11:28:38;25.10;99.90
25668;DHT22;18003;-33.830;151.202;2023-03-20T11:34:29;25.00;99.90
25668;DHT22;18003;-33.830;151.202;2023-03-20T11:36:31;25.10;99.90
25668;DHT22;18003;-33.830;151.202;2023-03-20T11:39:21;25.30;99.90
25668;DHT22;18003;-33.830;151.202;2023-03-20T11:41:49;25.10;99.90
25668;DHT22;18003;-33.830;151.202;2023-03-20T11:44:31;25.00;99.90
25668;DHT22;18003;-33.830;151.202;2023-03-20T11:47:21;24.90;99.90
25668;DHT22;18003;-33.830;151.202;2023-03-20T11:49:44;24.90;99.90
25668;DHT22;18003;-33.830;151.202;2023-03-20T11:52:19;25.20;99.90
25668;DHT22;18003;-33.830;151.202;2023-03-20T11:54:54;25.00;99.90
25668;DHT22;18003;-33.830;151.202;2023-03-20T11:57:39;24.90;99.90
25668;DHT22;18003;-33.830;151.202;2023-03-20T12:00:17;24.90;99.90
25668;DHT22;18003;-33.830;151.202;2023-03-20T12:02:47;24.80;99.90
25668;DHT22;18003;-33.830;151.202;2023-03-20T12:05:28;25.10;99.90
25668;DHT22;18003;-33.830;151.202;2023-03-20T12:08:18;25.00;99.90
25668;DHT22;18003;-33.830;151.202;2023-03-20T12:10:50;24.90;99.90
25668;DHT22;18003;-33.830;151.202;2023-03-20T12:13:26;24.80;99.90
25668;DHT22;18003;-33.830;151.202;2023-03-20T12:15:54;24.80;99.90
25668;DHT22;18003;-33.830;151.202;2023-03-20T12:21:25;24.90;99.90
25668;DHT22;18003;-33.830;151.202;2023-03-20T12:24:03;24.90;99.90
25668;DHT22;18003;-33.830;151.202;2023-03-20T12:26:38;24.70;99.90
25668;DHT22;18003;-33.830;151.202;2023-03-20T12:29:28;24.70;99.90
25668;DHT22;18003;-33.830;151.202;2023-03-20T12:32:16;25.00;99.90
25668;DHT22;18003;-33.830;151.202;2023-03-20T12:34:50;24.80;99.90
25668;DHT22;18003;-33.830;151.202;2023-03-20T12:37:20;24.70;99.90
25668;DHT22;18003;-33.830;151.202;2023-03-20T12:39:58;24.70;99.90
25668;DHT22;18003;-33.830;151.202;2023-03-20T12:42:42;24.60;99.90
25668;DHT22;18003;-33.830;151.202;2023-03-20T12:45:58;24.90;99.90
25668;DHT22;18003;-33.830;151.202;2023-03-20T13:01:58;24.50;99.90
25668;DHT22;18003;-33.830;151.202;2023-03-20T13:04:40;24.50;99.90
25668;DHT22;18003;-33.830;151.202;2023-03-20T13:07:09;24.40;99.90
25668;DHT22;18003;-33.830;151.202;2023-03-20T13:15:18;24.60;99.90
25668;DHT22;18003;-33.830;151.202;2023-03-20T13:18:10;24.50;99.90
25668;DHT22;18003;-33.830;151.202;2023-03-20T13:20:48;24.40;99.90
25668;DHT22;18003;-33.830;151.202;2023-03-20T13:26:09;24.70;99.90
25668;DHT22;18003;-33.830;151.202;2023-03-20T13:34:41;24.30;99.90
25668;DHT22;18003;-33.830;151.202;2023-03-20T13:37:24;24.30;99.90
25668;DHT22;18003;-33.830;151.202;2023-03-20T13:42:59;24.20;99.90
25668;DHT22;18003;-33.830;151.202;2023-03-20T13:45:36;24.20;99.90
25668;DHT22;18003;-33.830;151.202;2023-03-20T13:48:31;24.10;99.90
25668;DHT22;18003;-33.830;151.202;2023-03-20T13:54:02;24.10;99.90
25668;DHT22;18003;-33.830;151.202;2023-03-20T14:02:44;24.10;99.90
25668;DHT22;18003;-33.830;151.202;2023-03-20T14:05:21;24.10;99.90
25668;DHT22;18003;-33.830;151.202;2023-03-20T14:07:47;24.00;99.90
25668;DHT22;18003;-33.830;151.202;2023-03-20T14:13:02;23.90;99.90
25668;DHT22;18003;-33.830;151.202;2023-03-20T14:15:35;23.90;99.90
25668;DHT22;18003;-33.830;151.202;2023-03-20T14:18:12;24.00;99.90
25668;DHT22;18003;-33.830;151.202;2023-03-20T14:20:42;23.90;99.90
25668;DHT22;18003;-33.830;151.202;2023-03-20T14:23:16;23.80;99.90
25668;DHT22;18003;-33.830;151.202;2023-03-20T14:25:48;23.90;99.90
25668;DHT22;18003;-33.830;151.202;2023-03-20T14:28:27;23.80;99.90
25668;DHT22;18003;-33.830;151.202;2023-03-20T14:31:28;23.90;99.90
25668;DHT22;18003;-33.830;151.202;2023-03-20T14:33:59;23.90;99.90
25668;DHT22;18003;-33.830;151.202;2023-03-20T14:37:23;23.90;99.90
25668;DHT22;18003;-33.830;151.202;2023-03-20T14:39:23;23.80;99.90
25668;DHT22;18003;-33.830;151.202;2023-03-20T14:41:47;23.80;99.90
25668;DHT22;18003;-33.830;151.202;2023-03-20T14:44:30;23.80;99.90
25668;DHT22;18003;-33.830;151.202;2023-03-20T14:49:49;23.80;99.90
25668;DHT22;18003;-33.830;151.202;2023-03-20T14:54:54;23.70;99.90
25668;DHT22;18003;-33.830;151.202;2023-03-20T14:57:34;23.60;99.90
25668;DHT22;18003;-33.830;151.202;2023-03-20T15:00:03;23.60;99.90
25668;DHT22;18003;-33.830;151.202;2023-03-20T15:02:34;23.60;99.90
25668;DHT22;18003;-33.830;151.202;2023-03-20T15:05:19;23.60;99.90
25668;DHT22;18003;-33.830;151.202;2023-03-20T15:07:42;23.60;99.90
25668;DHT22;18003;-33.830;151.202;2023-03-20T15:10:10;23.60;99.90
25668;DHT22;18003;-33.830;151.202;2023-03-20T15:12:41;23.70;99.90
25668;DHT22;18003;-33.830;151.202;2023-03-20T15:15:25;23.70;99.90
25668;DHT22;18003;-33.830;151.202;2023-03-20T15:18:02;23.60;99.90
25668;DHT22;18003;-33.830;151.202;2023-03-20T15:20:27;23.60;99.90
25668;DHT22;18003;-33.830;151.202;2023-03-20T15:22:59;23.60;99.90
25668;DHT22;18003;-33.830;151.202;2023-03-20T15:25:51;23.60;99.90
25668;DHT22;18003;-33.830;151.202;2023-03-20T15:28:11;23.50;99.90
25668;DHT22;18003;-33.830;151.202;2023-03-20T15:30:35;23.50;99.90
25668;DHT22;18003;-33.830;151.202;2023-03-20T15:33:05;23.50;99.90
25668;DHT22;18003;-33.830;151.202;2023-03-20T15:35:35;23.50;99.90
25668;DHT22;18003;-33.830;151.202;2023-03-20T15:38:06;23.50;99.90
25668;DHT22;18003;-33.830;151.202;2023-03-20T15:40:38;23.50;99.90
25668;DHT22;18003;-33.830;151.202;2023-03-20T15:43:24;23.50;99.90
25668;DHT22;18003;-33.830;151.202;2023-03-20T15:45:55;23.40;99.90
25668;DHT22;18003;-33.830;151.202;2023-03-20T15:48:26;23.40;99.90
25668;DHT22;18003;-33.830;151.202;2023-03-20T15:51:01;23.30;99.90
25668;DHT22;18003;-33.830;151.202;2023-03-20T15:53:29;23.40;99.90
25668;DHT22;18003;-33.830;151.202;2023-03-20T15:56:18;23.50;99.90
25668;DHT22;18003;-33.830;151.202;2023-03-20T15:58:50;23.50;99.90
25668;DHT22;18003;-33.830;151.202;2023-03-20T16:01:22;23.40;99.90
25668;DHT22;18003;-33.830;151.202;2023-03-20T16:03:55;23.30;99.90
25668;DHT22;18003;-33.830;151.202;2023-03-20T16:06:25;23.30;99.90
25668;DHT22;18003;-33.830;151.202;2023-03-20T16:08:56;23.30;99.90
25668;DHT22;18003;-33.830;151.202;2023-03-20T16:11:40;23.30;99.90
25668;DHT22;18003;-33.830;151.202;2023-03-20T16:14:21;23.30;99.90
25668;DHT22;18003;-33.830;151.202;2023-03-20T16:16:49;23.30;99.90
25668;DHT22;18003;-33.830;151.202;2023-03-20T16:19:20;23.40;99.90
25668;DHT22;18003;-33.830;151.202;2023-03-20T16:21:58;23.40;99.90
25668;DHT22;18003;-33.830;151.202;2023-03-20T16:24:36;23.30;99.90
25668;DHT22;18003;-33.830;151.202;2023-03-20T16:27:08;23.30;99.90
25668;DHT22;18003;-33.830;151.202;2023-03-20T16:29:41;23.20;99.90
25668;DHT22;18003;-33.830;151.202;2023-03-20T16:32:16;23.30;99.90
25668;DHT22;18003;-33.830;151.202;2023-03-20T16:34:44;23.30;99.90
25668;DHT22;18003;-33.830;151.202;2023-03-20T16:37:35;23.40;99.90
25668;DHT22;18003;-33.830;151.202;2023-03-20T16:42:52;23.30;99.90
25668;DHT22;18003;-33.830;151.202;2023-03-20T16:45:32;23.30;99.90
25668;DHT22;18003;-33.830;151.202;2023-03-20T16:50:46;23.30;99.90
25668;DHT22;18003;-33.830;151.202;2023-03-20T16:53:18;23.40;99.90
25668;DHT22;18003;-33.830;151.202;2023-03-20T16:55:50;23.20;99.90
25668;DHT22;18003;-33.830;151.202;2023-03-20T16:58:26;23.20;99.90
25668;DHT22;18003;-33.830;151.202;2023-03-20T17:01:05;23.20;99.90